English, West Virginia
Current Conditions -  °F | °C
As of 6:15 PM on Thursday 23 Oct 2014 (Local Time) from KJFZ Reporting Station
Overcast Overcast  
Wind Chill:   Ceiling: 1900
Heat Index: 10°   Visibility: 10mi
Dew Point:   Wind: 5mph
Humidity: 73%   Direction: 330°NNW
Pressure: 30.12"   Gusts: NA
Location:  37.34°N, 81.72°W
Report Text: KJFZ 232215Z AUTO 33004KT 10SM OVC019 10/05 A3012 RMK AO2 T00970051
Loading
Personal Weather Stations






























Interactive Weather Map
Tropical Storm Tracking
New forecast layout! Learn more

10-Day Weather Forecast

Advertisements
Track Severe Weather on mobile